createdAt,value
2022-11-04T05:02:16.711Z,0.30
2022-11-04T05:03:16.462Z,0.40
2022-11-04T05:04:16.456Z,0.50
2022-11-04T05:05:18.098Z,0.30
2022-11-04T05:06:16.425Z,0.30
2022-11-04T05:07:16.409Z,0.40
2022-11-04T05:08:16.445Z,0.40
2022-11-04T05:09:16.387Z,0.40
2022-11-04T05:10:16.364Z,0.30
2022-11-04T05:11:16.356Z,0.40
2022-11-04T05:12:16.344Z,0.30
2022-11-04T05:13:16.343Z,0.40
2022-11-04T05:14:16.355Z,0.30
2022-11-04T05:15:16.309Z,0.40
2022-11-04T05:16:23.318Z,0.40
2022-11-04T05:17:16.285Z,0.30
2022-11-04T05:18:16.270Z,0.60
2022-11-04T05:19:16.304Z,1.30
2022-11-04T05:20:16.240Z,0.40
2022-11-04T05:21:16.260Z,0.30
2022-11-04T05:22:16.221Z,0.40
2022-11-04T05:23:16.213Z,0.30
2022-11-04T05:24:16.238Z,0.40
2022-11-04T05:25:16.388Z,0.30
2022-11-04T05:26:16.171Z,0.30
2022-11-04T05:27:16.155Z,0.40
2022-11-04T05:28:16.163Z,0.30
2022-11-04T05:29:16.267Z,0.60
2022-11-04T05:30:16.113Z,1.40
2022-11-04T05:31:16.166Z,1.00
2022-11-04T05:32:16.088Z,0.50
2022-11-04T05:33:16.079Z,0.50
2022-11-04T05:34:16.082Z,0.60
2022-11-04T05:35:16.046Z,0.30
2022-11-04T05:36:16.053Z,0.40
2022-11-04T05:37:16.194Z,0.30
2022-11-04T05:38:16.005Z,0.40
2022-11-04T05:39:15.996Z,0.50
2022-11-04T05:40:16.016Z,2.30
2022-11-04T05:41:15.984Z,0.60
2022-11-04T05:42:15.965Z,0.30
2022-11-04T05:43:16.023Z,0.40
2022-11-04T05:44:15.943Z,0.50
2022-11-04T05:45:15.926Z,0.30
2022-11-04T05:46:15.918Z,0.70
2022-11-04T05:47:15.896Z,0.40
2022-11-04T05:48:15.887Z,0.70
2022-11-04T05:49:15.923Z,0.40
2022-11-04T05:50:15.916Z,0.30
2022-11-04T05:51:15.851Z,0.50
2022-11-04T05:52:15.842Z,0.40
2022-11-04T05:53:15.931Z,0.50
2022-11-04T05:54:15.895Z,0.30
2022-11-04T05:55:15.798Z,0.60
2022-11-04T05:56:15.932Z,0.80
2022-11-04T05:57:15.790Z,1.00
2022-11-04T05:58:15.772Z,0.90
2022-11-04T05:59:15.759Z,0.50
2022-11-04T06:00:15.729Z,0.50
2022-11-04T06:01:15.749Z,0.70
2022-11-04T06:02:15.857Z,0.30
2022-11-04T06:03:16.562Z,0.40
2022-11-04T06:04:15.732Z,0.30
2022-11-04T06:05:15.666Z,0.50
2022-11-04T06:06:15.651Z,0.40
2022-11-04T06:07:15.644Z,0.40
2022-11-04T06:08:15.717Z,0.40
2022-11-04T06:09:15.726Z,0.40
2022-11-04T06:10:15.668Z,0.30
2022-11-04T06:11:15.601Z,0.30
2022-11-04T06:12:15.587Z,0.40
2022-11-04T06:13:15.572Z,0.40
2022-11-04T06:14:18.844Z,0.30
2022-11-04T06:15:15.551Z,0.80
2022-11-04T06:16:15.527Z,0.40
2022-11-04T06:17:15.592Z,0.60
2022-11-04T06:18:15.494Z,0.30
2022-11-04T06:19:16.298Z,0.30
2022-11-04T06:20:15.515Z,0.50
2022-11-04T06:21:15.535Z,0.30
2022-11-04T06:22:15.465Z,0.30
2022-11-04T06:23:15.433Z,0.40
2022-11-04T06:24:15.423Z,0.50
2022-11-04T06:25:15.406Z,0.40
2022-11-04T06:26:15.464Z,0.40
2022-11-04T06:27:15.376Z,0.30
2022-11-04T06:28:15.362Z,0.40
2022-11-04T06:29:15.367Z,0.40
2022-11-04T06:30:15.366Z,0.30
2022-11-04T06:31:15.332Z,0.30
2022-11-04T06:32:15.409Z,0.40
2022-11-04T06:33:15.301Z,0.30
2022-11-04T06:34:15.293Z,0.40
2022-11-04T06:35:15.281Z,0.40
2022-11-04T06:36:15.260Z,0.30
2022-11-04T06:37:15.258Z,0.30
2022-11-04T06:38:15.598Z,0.70
2022-11-04T06:39:15.225Z,0.30
2022-11-04T06:40:15.238Z,0.40
2022-11-04T06:41:15.200Z,0.40
2022-11-04T06:42:15.189Z,0.30
2022-11-04T06:43:15.174Z,0.40
2022-11-04T06:44:15.250Z,0.30
2022-11-04T06:45:15.246Z,0.40
2022-11-04T06:46:16.210Z,0.60
2022-11-04T06:47:15.129Z,0.40
2022-11-04T06:48:15.126Z,0.40
2022-11-04T06:49:15.120Z,0.60
2022-11-04T06:50:15.097Z,0.50
2022-11-04T06:51:15.077Z,0.60
2022-11-04T06:52:15.131Z,0.50
2022-11-04T06:53:15.046Z,0.50
2022-11-04T06:54:15.028Z,0.50
2022-11-04T06:55:15.026Z,0.60
2022-11-04T06:56:15.016Z,0.60
2022-11-04T06:57:15.006Z,0.40
2022-11-04T06:58:15.014Z,0.70
2022-11-04T06:59:14.983Z,1.00
2022-11-04T07:00:14.954Z,0.50
2022-11-04T07:01:21.549Z,1.50
2022-11-04T07:02:16.147Z,1.60
2022-11-04T07:03:14.963Z,1.90
2022-11-04T07:04:14.893Z,1.60
2022-11-04T07:05:14.914Z,2.80
2022-11-04T07:06:14.882Z,1.50
2022-11-04T07:07:14.927Z,2.80
2022-11-04T07:08:14.864Z,1.40
2022-11-04T07:09:14.840Z,1.30
2022-11-04T07:10:14.885Z,1.30
2022-11-04T07:11:14.924Z,1.30
2022-11-04T07:12:14.800Z,0.90
2022-11-04T07:13:14.860Z,1.00
2022-11-04T07:14:14.780Z,2.00
2022-11-04T07:15:14.770Z,2.00
2022-11-04T07:16:15.411Z,1.50
2022-11-04T07:17:14.740Z,1.70
2022-11-04T07:18:14.733Z,1.20
2022-11-04T07:19:14.715Z,1.30
2022-11-04T07:20:14.699Z,1.60
2022-11-04T07:21:14.689Z,3.70
2022-11-04T07:22:14.859Z,3.90
2022-11-04T07:23:14.661Z,3.30
2022-11-04T07:24:14.642Z,1.00
2022-11-04T07:25:14.629Z,1.50
2022-11-04T07:26:14.619Z,1.50
2022-11-04T07:27:14.618Z,2.00
2022-11-04T07:28:14.748Z,1.30
2022-11-04T07:29:14.580Z,1.90
2022-11-04T07:30:14.582Z,2.00
2022-11-04T07:31:14.556Z,1.70
2022-11-04T07:32:14.553Z,1.60
2022-11-04T07:33:14.525Z,1.00
2022-11-04T07:34:14.702Z,0.70
2022-11-04T07:35:14.504Z,1.90
2022-11-04T07:36:14.508Z,0.80
2022-11-04T07:37:14.486Z,1.50
2022-11-04T07:38:14.495Z,1.30
2022-11-04T07:39:14.467Z,2.10
2022-11-04T07:40:14.575Z,2.20
2022-11-04T07:41:14.426Z,1.40
2022-11-04T07:42:14.413Z,1.50
2022-11-04T07:43:14.393Z,0.80
2022-11-04T07:44:14.382Z,0.80
2022-11-04T07:45:14.374Z,0.80
2022-11-04T07:46:14.495Z,2.10
2022-11-04T07:47:14.349Z,2.00
2022-11-04T07:48:14.335Z,1.20
2022-11-04T07:49:14.334Z,1.20
2022-11-04T07:50:14.353Z,1.60
2022-11-04T07:51:14.294Z,3.70
2022-11-04T07:52:14.820Z,1.30
2022-11-04T07:53:14.273Z,1.10
2022-11-04T07:54:14.250Z,0.90
2022-11-04T07:55:14.243Z,2.70
2022-11-04T07:56:14.226Z,1.00
2022-11-04T07:57:14.215Z,1.60
2022-11-04T07:58:14.252Z,1.00
2022-11-04T07:59:14.221Z,1.10
2022-11-04T08:00:14.180Z,1.10
2022-11-04T08:01:14.242Z,1.30
2022-11-04T08:02:14.230Z,1.40
2022-11-04T08:03:14.311Z,1.00
2022-11-04T08:04:14.275Z,5.00
2022-11-04T08:05:14.148Z,3.00
2022-11-04T08:06:14.113Z,1.50
2022-11-04T08:07:14.105Z,0.90
2022-11-04T08:08:14.088Z,1.30
2022-11-04T08:09:14.109Z,0.90
2022-11-04T08:10:14.228Z,1.60
2022-11-04T08:11:17.397Z,1.00
2022-11-04T08:12:14.025Z,0.90
2022-11-04T08:13:14.029Z,0.90
2022-11-04T08:14:13.996Z,0.90
2022-11-04T08:15:13.987Z,1.00
2022-11-04T08:16:14.049Z,0.70
2022-11-04T08:17:13.967Z,0.70
2022-11-04T08:18:13.953Z,2.10
2022-11-04T08:19:13.946Z,0.60
2022-11-04T08:20:13.961Z,0.60
2022-11-04T08:21:13.924Z,0.50
2022-11-04T08:22:13.934Z,0.40
2022-11-04T08:23:13.891Z,0.70
2022-11-04T08:24:13.876Z,0.60
2022-11-04T08:25:13.878Z,1.50
2022-11-04T08:26:13.854Z,0.60
2022-11-04T08:27:13.999Z,0.50
2022-11-04T08:28:13.835Z,0.70
2022-11-04T08:29:13.827Z,0.50
2022-11-04T08:30:13.863Z,1.20
2022-11-04T08:31:13.787Z,0.60
2022-11-04T08:32:13.772Z,0.70
2022-11-04T08:33:13.964Z,0.80
2022-11-04T08:34:13.765Z,0.50
2022-11-04T08:35:13.753Z,0.60
2022-11-04T08:36:13.723Z,1.40
2022-11-04T08:37:13.715Z,0.80
2022-11-04T08:38:13.710Z,0.70
2022-11-04T08:39:13.719Z,0.70
2022-11-04T08:40:13.780Z,0.90
2022-11-04T08:41:13.661Z,0.80
2022-11-04T08:42:13.661Z,1.00
2022-11-04T08:43:13.637Z,1.00
2022-11-04T08:44:13.609Z,0.80
2022-11-04T08:45:20.925Z,0.80
2022-11-04T08:46:13.588Z,1.40
2022-11-04T08:47:14.278Z,0.90
2022-11-04T08:48:16.226Z,2.30
2022-11-04T08:49:17.788Z,1.40
2022-11-04T08:50:14.564Z,0.90
2022-11-04T08:51:13.656Z,0.80
2022-11-04T08:52:13.505Z,1.80
2022-11-04T08:53:13.696Z,1.20
2022-11-04T08:54:13.492Z,0.80
2022-11-04T08:55:13.480Z,1.70
2022-11-04T08:56:13.467Z,1.10
2022-11-04T08:57:13.453Z,0.80
2022-11-04T08:58:13.436Z,1.00
2022-11-04T08:59:13.668Z,1.90
2022-11-04T09:00:13.420Z,1.20
2022-11-04T09:01:13.550Z,1.00
2022-11-04T09:02:13.414Z,1.00
2022-11-04T09:03:13.554Z,1.40
2022-11-04T09:04:13.436Z,1.70
2022-11-04T09:05:13.342Z,1.20
2022-11-04T09:06:13.344Z,1.10
2022-11-04T09:07:13.311Z,1.00
2022-11-04T09:08:13.338Z,1.10
2022-11-04T09:09:13.361Z,1.20
2022-11-04T09:10:13.306Z,2.10
2022-11-04T09:11:13.282Z,1.10
2022-11-04T09:12:13.252Z,1.50
2022-11-04T09:13:13.234Z,1.70
2022-11-04T09:14:13.326Z,1.50
2022-11-04T09:15:14.221Z,2.00
2022-11-04T09:16:13.224Z,1.90
2022-11-04T09:17:13.189Z,1.10
2022-11-04T09:18:13.179Z,1.90
2022-11-04T09:19:13.178Z,0.80
2022-11-04T09:20:13.170Z,0.90
2022-11-04T09:21:13.240Z,2.10
2022-11-04T09:22:13.635Z,1.90
2022-11-04T09:23:13.221Z,1.60
2022-11-04T09:24:13.101Z,1.30
2022-11-04T09:25:13.081Z,1.60
2022-11-04T09:26:13.078Z,1.60
2022-11-04T09:27:13.128Z,0.90
2022-11-04T09:28:13.090Z,1.00
2022-11-04T09:29:13.018Z,0.80
2022-11-04T09:30:13.032Z,0.80
2022-11-04T09:31:13.012Z,2.20
2022-11-04T09:32:12.988Z,0.80
2022-11-04T09:33:13.178Z,0.70
2022-11-04T09:34:12.963Z,1.50
2022-11-04T09:35:12.953Z,1.30
2022-11-04T09:36:12.936Z,1.50
2022-11-04T09:37:12.918Z,0.70
2022-11-04T09:38:12.916Z,0.90
2022-11-04T09:39:12.957Z,0.90
2022-11-04T09:40:13.048Z,0.90
2022-11-04T09:41:12.867Z,0.90
2022-11-04T09:42:12.855Z,1.10
2022-11-04T09:43:12.848Z,2.20
2022-11-04T09:44:12.835Z,1.40
2022-11-04T09:45:22.560Z,1.00
2022-11-04T09:46:13.822Z,1.00
2022-11-04T09:47:14.754Z,1.10
2022-11-04T09:48:13.814Z,0.70
2022-11-04T09:49:12.765Z,0.50
2022-11-04T09:50:12.757Z,1.00
2022-11-04T09:51:20.806Z,1.20
2022-11-04T09:52:13.735Z,0.50
2022-11-04T09:53:12.722Z,1.90
2022-11-04T09:54:12.725Z,1.60
2022-11-04T09:55:12.696Z,1.00
2022-11-04T09:56:12.674Z,2.40
2022-11-04T09:57:12.684Z,1.00
2022-11-04T09:58:12.747Z,0.90
2022-11-04T09:59:12.692Z,1.00
2022-11-04T10:00:12.711Z,0.60
2022-11-04T10:01:12.662Z,1.00
2022-11-04T10:02:16.391Z,0.70
2022-11-04T10:03:13.592Z,1.20
2022-11-04T10:04:12.578Z,0.60
2022-11-04T10:05:12.608Z,0.60
2022-11-04T10:06:12.662Z,0.50
2022-11-04T10:07:12.829Z,1.00
2022-11-04T10:08:13.502Z,0.60
2022-11-04T10:09:12.513Z,0.70
2022-11-04T10:10:12.508Z,0.80
2022-11-04T10:11:12.484Z,0.70
2022-11-04T10:12:12.530Z,0.50
2022-11-04T10:13:12.609Z,0.70
2022-11-04T10:14:12.555Z,0.70
2022-11-04T10:15:12.429Z,1.30
2022-11-04T10:16:12.417Z,0.60
2022-11-04T10:17:12.457Z,0.80
2022-11-04T10:18:12.394Z,0.50
2022-11-04T10:19:12.378Z,0.50
2022-11-04T10:20:12.731Z,0.50
2022-11-04T10:21:12.347Z,0.40
2022-11-04T10:22:12.397Z,0.50
2022-11-04T10:23:12.433Z,0.60
2022-11-04T10:24:12.310Z,0.40
2022-11-04T10:25:12.298Z,0.30
2022-11-04T10:26:12.370Z,0.40
2022-11-04T10:27:12.274Z,0.40
2022-11-04T10:28:12.260Z,0.60
2022-11-04T10:29:12.250Z,0.50
2022-11-04T10:30:12.256Z,0.40
2022-11-04T10:31:12.228Z,0.50
2022-11-04T10:32:12.696Z,0.60
2022-11-04T10:33:12.598Z,0.50
2022-11-04T10:34:12.186Z,0.40
2022-11-04T10:35:12.186Z,0.50
2022-11-04T10:36:12.157Z,0.40
2022-11-04T10:37:12.157Z,0.60
2022-11-04T10:38:12.466Z,0.60
2022-11-04T10:39:12.134Z,0.50
2022-11-04T10:40:12.114Z,0.40
2022-11-04T10:41:12.096Z,0.70
2022-11-04T10:42:12.076Z,0.70
2022-11-04T10:43:12.365Z,0.80
2022-11-04T10:44:12.134Z,0.60
2022-11-04T10:45:12.041Z,0.50
2022-11-04T10:46:12.041Z,0.40
2022-11-04T10:47:12.047Z,0.70
2022-11-04T10:48:12.017Z,0.30
2022-11-04T10:49:11.992Z,0.40
2022-11-04T10:50:30.360Z,0.30
2022-11-04T10:51:12.965Z,0.30
2022-11-04T10:52:11.944Z,0.70
2022-11-04T10:53:12.177Z,0.60
2022-11-04T10:54:11.937Z,0.60
2022-11-04T10:55:11.905Z,0.40
2022-11-04T10:56:12.578Z,0.40
2022-11-04T10:57:11.906Z,0.50
2022-11-04T10:58:11.895Z,0.30
2022-11-04T10:59:15.058Z,0.40
2022-11-04T11:00:12.866Z,0.50
2022-11-04T11:01:14.990Z,0.50
2022-11-04T11:02:13.136Z,0.50
2022-11-04T11:03:11.887Z,0.40
2022-11-04T11:04:11.802Z,0.50
2022-11-04T11:05:11.785Z,0.30
2022-11-04T11:06:11.772Z,0.40
2022-11-04T11:07:11.756Z,0.40
2022-11-04T11:08:12.601Z,0.40
2022-11-04T11:09:11.723Z,0.40
2022-11-04T11:10:11.720Z,0.50
2022-11-04T11:11:11.703Z,0.30
2022-11-04T11:12:36.647Z,0.30
2022-11-04T11:13:12.788Z,0.40
2022-11-04T11:14:12.873Z,0.50
2022-11-04T11:15:14.630Z,0.40
2022-11-04T11:16:11.640Z,1.20
2022-11-04T11:17:19.144Z,0.30
2022-11-04T11:18:14.292Z,0.40
2022-11-04T11:19:13.370Z,0.40
2022-11-04T11:20:13.556Z,0.40
2022-11-04T11:21:11.620Z,0.30
2022-11-04T11:22:11.619Z,0.30
2022-11-04T11:23:12.114Z,0.40
2022-11-04T11:24:11.586Z,0.50
2022-11-04T11:25:11.538Z,0.30
2022-11-04T11:26:11.579Z,0.70
2022-11-04T11:27:11.509Z,0.40
2022-11-04T11:28:11.517Z,0.20
2022-11-04T11:29:11.478Z,0.50
2022-11-04T11:30:11.465Z,0.40
2022-11-04T11:31:11.458Z,0.40
2022-11-04T11:32:11.498Z,0.80
2022-11-04T11:33:11.743Z,0.50
2022-11-04T11:34:11.422Z,1.40
2022-11-04T11:35:11.847Z,0.30
2022-11-04T11:36:11.425Z,1.30
2022-11-04T11:37:11.415Z,0.50
2022-11-04T11:38:11.381Z,0.50
2022-11-04T11:39:11.358Z,0.30
2022-11-04T11:40:11.732Z,0.50
2022-11-04T11:41:24.437Z,0.40
2022-11-04T11:42:12.325Z,0.40
2022-11-04T11:43:11.471Z,1.20
2022-11-04T11:44:11.290Z,0.50
2022-11-04T11:45:11.275Z,0.30
2022-11-04T11:46:11.341Z,0.50
2022-11-04T11:47:11.240Z,0.30
2022-11-04T11:48:11.239Z,0.40
2022-11-04T11:49:11.220Z,0.40
2022-11-04T11:50:11.217Z,0.50
2022-11-04T11:51:11.209Z,1.70
2022-11-04T11:52:11.309Z,0.30
2022-11-04T11:53:11.439Z,0.30
2022-11-04T11:54:11.174Z,0.30
2022-11-04T11:55:11.165Z,0.40
2022-11-04T11:56:13.789Z,0.30
2022-11-04T11:57:14.140Z,0.30
2022-11-04T12:00:37.444Z,0.70
2022-11-04T12:01:21.634Z,0.30
2022-11-04T12:02:12.180Z,0.60
2022-11-04T12:03:11.647Z,0.50
2022-11-04T12:09:15.251Z,1.30
2022-11-04T12:10:18.539Z,0.90
2022-11-04T12:11:11.939Z,0.40
2022-11-04T12:12:10.942Z,0.30
2022-11-04T12:13:18.405Z,0.30
2022-11-04T12:14:11.922Z,0.30
2022-11-04T12:15:11.317Z,0.40
2022-11-04T12:16:10.904Z,0.20
2022-11-04T12:17:10.865Z,0.40
2022-11-04T12:18:10.866Z,0.40
2022-11-04T12:19:10.831Z,1.40
2022-11-04T12:20:15.195Z,0.40
2022-11-04T12:21:10.859Z,1.00
2022-11-04T12:22:10.807Z,0.40
2022-11-04T12:23:11.218Z,0.30
2022-11-04T12:24:10.774Z,0.70
2022-11-04T12:25:13.097Z,0.20
2022-11-04T12:26:10.808Z,0.40
2022-11-04T12:27:10.727Z,0.40
2022-11-04T12:28:10.714Z,0.30
2022-11-04T12:29:10.744Z,0.50
2022-11-04T12:30:10.708Z,0.20
2022-11-04T12:31:10.989Z,0.80
2022-11-04T12:32:10.803Z,5.00
2022-11-04T12:33:11.148Z,4.70
2022-11-04T12:34:10.695Z,1.20
2022-11-04T12:35:10.626Z,0.40
2022-11-04T12:36:10.662Z,0.40
2022-11-04T12:37:10.908Z,1.20
2022-11-04T12:38:11.466Z,3.20
2022-11-04T12:39:10.578Z,0.70
2022-11-04T12:40:10.614Z,0.40
2022-11-04T12:41:37.534Z,0.50
2022-11-04T12:42:21.244Z,0.30
2022-11-04T12:43:11.920Z,1.30
2022-11-04T12:44:10.539Z,0.40
2022-11-04T12:45:10.540Z,0.50
2022-11-04T12:46:10.488Z,0.60
2022-11-04T12:47:10.484Z,0.50
2022-11-04T12:48:10.508Z,0.40
2022-11-04T12:49:17.459Z,0.50
2022-11-04T12:50:17.470Z,0.80
2022-11-04T12:51:17.451Z,0.40
2022-11-04T12:52:17.430Z,0.90
2022-11-04T12:53:17.535Z,0.40
2022-11-04T12:54:17.389Z,0.30
2022-11-04T12:55:10.460Z,0.40
2022-11-04T12:56:10.347Z,0.50
2022-11-04T12:57:10.481Z,0.70
2022-11-04T12:58:10.331Z,0.30
2022-11-04T12:59:10.323Z,0.40
2022-11-04T13:00:10.376Z,0.40
2022-11-04T13:01:15.309Z,0.40
2022-11-04T13:02:10.428Z,0.40
2022-11-04T13:03:10.550Z,1.10
2022-11-04T13:04:10.253Z,0.50
2022-11-04T13:05:10.246Z,0.90
2022-11-04T13:06:10.219Z,0.40
2022-11-04T13:07:10.406Z,0.50
2022-11-04T13:08:14.248Z,0.70
2022-11-04T13:09:10.208Z,0.40
2022-11-04T13:10:10.230Z,0.40
2022-11-04T13:11:10.192Z,0.40
2022-11-04T13:12:10.150Z,0.40
2022-11-04T13:13:10.680Z,1.40
2022-11-04T13:14:10.117Z,0.50
2022-11-04T13:15:10.116Z,3.20
2022-11-04T13:16:10.086Z,0.50
2022-11-04T13:17:10.501Z,1.00
2022-11-04T13:18:10.074Z,0.70
2022-11-04T13:19:10.048Z,1.00
2022-11-04T13:20:10.095Z,0.40
2022-11-04T13:21:10.029Z,0.40
2022-11-04T13:22:10.037Z,0.30
2022-11-04T13:23:10.300Z,0.30
2022-11-04T13:24:09.995Z,0.50
2022-11-04T13:25:09.987Z,1.00
2022-11-04T13:26:09.986Z,1.00
2022-11-04T13:27:10.151Z,0.50
2022-11-04T13:28:09.961Z,0.30
2022-11-04T13:29:09.939Z,0.50
2022-11-04T13:30:09.982Z,0.30
2022-11-04T13:31:09.897Z,0.40
2022-11-04T13:32:09.907Z,1.40
2022-11-04T13:33:10.278Z,0.40
2022-11-04T13:34:09.865Z,0.40
2022-11-04T13:35:09.874Z,0.50
2022-11-04T13:36:09.833Z,0.20
2022-11-04T13:37:09.840Z,0.40
2022-11-04T13:38:09.812Z,1.60
2022-11-04T13:39:10.080Z,2.40
2022-11-04T13:40:09.793Z,0.80
2022-11-04T13:41:12.225Z,0.30
2022-11-04T13:42:09.803Z,0.90
2022-11-04T13:43:10.018Z,0.40
2022-11-04T13:44:09.748Z,0.40
2022-11-04T13:45:09.797Z,0.40
2022-11-04T13:46:09.705Z,0.80
2022-11-04T13:47:09.715Z,0.40
2022-11-04T13:48:09.681Z,0.30
2022-11-04T13:49:09.851Z,0.40
2022-11-04T13:50:09.703Z,0.60
2022-11-04T13:51:09.710Z,1.20
2022-11-04T13:52:09.652Z,0.50
2022-11-04T13:53:09.960Z,0.80
2022-11-04T13:54:09.630Z,0.40
2022-11-04T13:55:09.607Z,0.70
2022-11-04T13:57:10.583Z,0.50
2022-11-04T13:58:09.543Z,1.30
2022-11-04T13:59:09.633Z,0.60
2022-11-04T14:00:09.546Z,0.40
2022-11-04T14:01:09.512Z,0.40
2022-11-04T14:02:09.828Z,0.50
2022-11-04T14:03:09.756Z,0.30
2022-11-04T14:04:09.491Z,0.50
2022-11-04T14:05:09.503Z,0.60
2022-11-04T14:06:09.453Z,0.40
2022-11-04T14:07:09.430Z,0.40
2022-11-04T14:08:10.188Z,0.30
2022-11-04T14:09:09.409Z,1.70
2022-11-04T14:10:09.447Z,0.30
2022-11-04T14:11:09.518Z,0.40
2022-11-04T14:12:09.365Z,0.40
2022-11-04T14:13:09.538Z,0.30
2022-11-04T14:14:09.441Z,0.80
2022-11-04T14:15:09.343Z,0.30
2022-11-04T14:16:09.335Z,0.30
2022-11-04T14:17:09.302Z,1.70
2022-11-04T14:18:12.946Z,1.10
2022-11-04T14:19:09.310Z,0.40
2022-11-04T14:20:09.970Z,0.40
2022-11-04T14:21:09.250Z,1.40
2022-11-04T14:22:09.261Z,0.30
2022-11-04T14:23:09.485Z,0.40
2022-11-04T14:24:14.968Z,1.10
2022-11-04T14:25:10.260Z,0.40
2022-11-04T14:26:09.179Z,0.30
2022-11-04T14:27:09.217Z,0.40
2022-11-04T14:28:09.667Z,0.70
2022-11-04T14:29:09.156Z,0.40
2022-11-04T14:30:09.128Z,0.50
2022-11-04T14:31:14.178Z,1.00
2022-11-04T14:32:10.107Z,0.50
2022-11-04T14:33:09.356Z,0.70
2022-11-04T14:34:09.171Z,0.40
2022-11-04T14:35:09.140Z,0.40
2022-11-04T14:36:09.058Z,0.50
2022-11-04T14:37:09.073Z,0.50
2022-11-04T14:38:09.028Z,0.40
2022-11-04T14:39:09.040Z,0.30
2022-11-04T14:40:09.697Z,0.90
2022-11-04T14:41:09.019Z,0.30
2022-11-04T14:42:08.979Z,0.40
2022-11-04T14:43:09.286Z,5.20
2022-11-04T14:44:08.946Z,1.40
2022-11-04T14:45:08.954Z,32.70
2022-11-04T14:46:09.432Z,26.70
2022-11-04T14:47:08.904Z,12.00
2022-11-04T14:48:11.869Z,43.40
2022-11-04T14:49:09.891Z,34.80
2022-11-04T14:50:08.866Z,6.10
2022-11-04T14:51:08.855Z,9.60
2022-11-04T14:52:08.910Z,4.30
2022-11-04T14:53:09.158Z,0.70
2022-11-04T14:54:08.994Z,0.80
2022-11-04T14:55:08.804Z,0.60
2022-11-04T14:56:08.788Z,0.50
2022-11-04T14:57:08.798Z,0.40
2022-11-04T14:58:08.758Z,0.60
2022-11-04T14:59:08.752Z,0.30
2022-11-04T15:00:10.221Z,0.60
2022-11-04T15:01:08.715Z,0.40
2022-11-04T15:02:08.801Z,0.40
2022-11-04T15:03:10.465Z,0.60
2022-11-04T15:04:11.986Z,1.20
2022-11-04T15:05:08.683Z,0.40
2022-11-04T15:06:08.719Z,1.00
2022-11-04T15:07:08.673Z,0.70
2022-11-04T15:08:08.628Z,0.40
2022-11-04T15:09:08.624Z,1.20
2022-11-04T15:10:08.670Z,0.40
2022-11-04T15:11:12.554Z,0.40
2022-11-04T15:12:09.609Z,0.40
2022-11-04T15:13:09.014Z,0.50
2022-11-04T15:14:08.780Z,0.50
2022-11-04T15:15:08.550Z,0.50
2022-11-04T15:16:08.530Z,0.40
2022-11-04T15:17:08.519Z,0.50
2022-11-04T15:18:08.515Z,1.60
2022-11-04T15:19:08.488Z,0.70
2022-11-04T15:20:08.996Z,0.50
2022-11-04T15:21:08.468Z,0.50
2022-11-04T15:22:08.473Z,2.40
2022-11-04T15:23:08.768Z,1.20
2022-11-04T15:24:08.417Z,0.50
2022-11-04T15:25:08.438Z,0.50
2022-11-04T15:26:08.438Z,0.60
2022-11-04T15:27:08.399Z,0.40
2022-11-04T15:28:08.393Z,0.40
2022-11-04T15:29:08.396Z,0.50
2022-11-04T15:30:08.343Z,0.50
2022-11-04T15:31:08.378Z,0.70
2022-11-04T15:32:08.400Z,0.40
2022-11-04T15:33:16.788Z,0.50
2022-11-04T15:34:15.800Z,0.40
2022-11-04T15:35:08.275Z,0.40
2022-11-04T15:36:15.294Z,1.70
2022-11-04T15:37:18.043Z,1.20
2022-11-04T15:38:15.750Z,0.80
2022-11-04T15:39:08.229Z,0.40
2022-11-04T15:40:08.209Z,1.20
2022-11-04T15:41:08.290Z,0.60
2022-11-04T15:42:08.194Z,1.30
2022-11-04T15:43:08.737Z,0.80
2022-11-04T15:44:08.168Z,0.60
2022-11-04T15:45:08.304Z,0.80
2022-11-04T15:46:08.158Z,0.40
2022-11-04T15:47:13.861Z,0.50
2022-11-04T15:48:09.191Z,0.50
2022-11-04T15:49:08.108Z,1.30
2022-11-04T15:50:08.124Z,4.00
2022-11-04T15:51:08.078Z,3.20
2022-11-04T15:52:08.077Z,2.40
2022-11-04T15:53:08.350Z,3.10
2022-11-04T15:54:08.415Z,0.90
2022-11-04T15:55:08.053Z,3.00
2022-11-04T15:56:08.019Z,2.70
2022-11-04T15:57:08.024Z,3.30
2022-11-04T15:58:08.327Z,1.80
2022-11-04T15:59:08.009Z,1.00
2022-11-04T16:00:09.204Z,1.70
2022-11-04T16:01:08.341Z,0.70
2022-11-04T16:02:08.113Z,0.80
2022-11-04T16:03:08.257Z,2.70
2022-11-04T16:04:07.958Z,2.50
2022-11-04T16:05:07.901Z,1.00
2022-11-04T16:06:07.943Z,1.40
2022-11-04T16:07:07.882Z,1.10
2022-11-04T16:08:07.894Z,0.80
2022-11-04T16:09:07.864Z,1.30
2022-11-04T16:10:09.838Z,0.60
2022-11-04T16:11:07.958Z,0.50
2022-11-04T16:12:07.814Z,0.70
2022-11-04T16:13:08.165Z,0.60
2022-11-04T16:14:07.842Z,1.20
2022-11-04T16:15:07.783Z,1.30
2022-11-04T16:16:08.274Z,0.50
2022-11-04T16:17:07.862Z,0.30
2022-11-04T16:18:07.749Z,0.90
2022-11-04T16:19:07.736Z,1.70
2022-11-04T16:20:07.717Z,0.70
2022-11-04T16:21:07.771Z,0.50
2022-11-04T16:22:07.727Z,0.50
2022-11-04T16:23:08.243Z,0.50
2022-11-04T16:24:07.680Z,0.30
2022-11-04T16:25:07.687Z,1.10
2022-11-04T16:26:07.665Z,0.50
2022-11-04T16:27:07.680Z,0.50
2022-11-04T16:28:07.669Z,0.50
2022-11-04T16:29:07.620Z,0.70
2022-11-04T16:30:07.585Z,0.50
2022-11-04T16:31:07.588Z,2.10
2022-11-04T16:32:07.646Z,1.20
2022-11-04T16:33:07.948Z,1.30
2022-11-04T16:34:07.668Z,0.40
2022-11-04T16:35:07.546Z,0.50
2022-11-04T16:36:07.540Z,0.40
2022-11-04T16:37:07.498Z,0.50
2022-11-04T16:38:07.567Z,0.50
2022-11-04T16:39:07.509Z,0.30
2022-11-04T16:40:07.758Z,1.00
2022-11-04T16:41:07.493Z,0.90
2022-11-04T16:42:07.435Z,0.70
2022-11-04T16:43:07.991Z,1.00
2022-11-04T16:44:07.406Z,0.50
2022-11-04T16:45:07.599Z,0.40
2022-11-04T16:46:07.791Z,0.40
2022-11-04T16:47:07.631Z,0.60
2022-11-04T16:48:07.392Z,0.60
2022-11-04T16:49:07.660Z,0.40
2022-11-04T16:50:07.337Z,0.60
2022-11-04T16:51:07.645Z,0.50
2022-11-04T16:52:07.415Z,0.90
2022-11-04T16:53:07.657Z,0.50
2022-11-04T16:54:07.363Z,0.50
2022-11-04T16:55:07.262Z,0.70
2022-11-04T16:56:07.492Z,0.90
2022-11-04T16:57:13.169Z,0.30
2022-11-04T16:58:07.387Z,4.40
2022-11-04T16:59:07.223Z,3.20
2022-11-04T17:00:07.211Z,1.90
2022-11-04T17:01:07.280Z,1.60
2022-11-04T17:02:07.269Z,2.10
2022-11-04T17:03:07.702Z,1.60
2022-11-04T17:04:07.149Z,1.10
2022-11-04T17:05:07.140Z,1.10
2022-11-04T17:06:07.139Z,1.60
2022-11-04T17:07:07.142Z,1.40
2022-11-04T17:08:07.180Z,2.10
2022-11-04T17:09:07.319Z,1.40
2022-11-04T17:10:07.128Z,3.20
2022-11-04T17:11:07.079Z,1.30
2022-11-04T17:12:07.056Z,1.50
2022-11-04T17:13:07.116Z,1.30
2022-11-04T17:14:07.060Z,1.00
2022-11-04T17:15:07.242Z,1.40
2022-11-04T17:16:07.007Z,0.90
2022-11-04T17:17:14.095Z,1.10
2022-11-04T17:18:07.015Z,2.30
2022-11-04T17:19:06.953Z,1.20
2022-11-04T17:20:06.954Z,2.20
2022-11-04T17:21:07.016Z,2.10
2022-11-04T17:22:06.913Z,1.60
2022-11-04T17:23:07.167Z,2.30
2022-11-04T17:24:06.890Z,1.10
2022-11-04T17:25:06.884Z,2.40
2022-11-04T17:26:06.997Z,0.60
2022-11-04T17:27:06.862Z,1.00
2022-11-04T17:28:06.849Z,1.30
2022-11-04T17:29:06.913Z,3.10
2022-11-04T17:30:06.823Z,3.00
2022-11-04T17:31:06.793Z,2.20
2022-11-04T17:32:06.843Z,2.40
2022-11-04T17:33:07.002Z,2.10
2022-11-04T17:34:06.763Z,1.20
2022-11-04T17:35:06.757Z,2.80
2022-11-04T17:36:07.944Z,1.80
2022-11-04T17:37:06.720Z,2.50
2022-11-04T17:38:06.812Z,1.40
2022-11-04T17:39:06.702Z,1.90
2022-11-04T17:40:06.689Z,1.90
2022-11-04T17:41:06.721Z,1.40
2022-11-04T17:42:06.701Z,1.00
2022-11-04T17:43:11.584Z,1.60
2022-11-04T17:44:07.637Z,1.50
2022-11-04T17:45:06.666Z,1.20
2022-11-04T17:46:06.629Z,1.40
2022-11-04T17:47:06.817Z,4.40
2022-11-04T17:48:06.584Z,3.90
2022-11-04T17:49:08.272Z,4.10
2022-11-04T17:50:06.566Z,3.00
2022-11-04T17:51:06.548Z,2.10
2022-11-04T17:52:06.652Z,3.20
2022-11-04T17:53:06.969Z,6.10
2022-11-04T17:54:06.507Z,1.80
2022-11-04T17:55:06.506Z,1.30
2022-11-04T17:56:06.504Z,1.00
2022-11-04T17:57:06.503Z,1.50
2022-11-04T17:58:06.458Z,0.70
2022-11-04T17:59:06.615Z,0.80
2022-11-04T18:00:06.531Z,0.80
2022-11-04T18:01:06.488Z,0.60
2022-11-04T18:02:06.575Z,0.90
2022-11-04T18:03:06.589Z,2.60
2022-11-04T18:04:06.444Z,0.90
2022-11-04T18:05:07.228Z,1.30
2022-11-04T18:06:06.380Z,1.70
2022-11-04T18:07:06.345Z,2.20
2022-11-04T18:08:06.334Z,2.00
2022-11-04T18:09:06.317Z,1.10
2022-11-04T18:10:06.328Z,0.90
2022-11-04T18:11:06.342Z,3.20
2022-11-04T18:12:06.273Z,1.20
2022-11-04T18:13:06.296Z,1.10
2022-11-04T18:14:06.264Z,1.50
2022-11-04T18:15:06.286Z,1.00
2022-11-04T18:16:06.286Z,1.30
2022-11-04T18:17:06.776Z,1.80
2022-11-04T18:18:06.204Z,1.40
2022-11-04T18:19:06.196Z,1.80
2022-11-04T18:20:10.734Z,1.50
2022-11-04T18:21:07.161Z,0.90
2022-11-04T18:22:06.170Z,1.00
2022-11-04T18:23:06.810Z,1.10
2022-11-04T18:24:06.150Z,1.60
2022-11-04T18:25:06.189Z,1.90
2022-11-04T18:26:06.108Z,1.00
2022-11-04T18:27:06.090Z,1.30
2022-11-04T18:28:06.090Z,1.60